Portada
METAR-TAF:

METAR-TAF

Aeroports :

Colmar, França

latitud: 48-06-37N, longitud: 7-21-33E, altitud: 191 m

Observació

L'informe es va fer fa 17 minuts, a les 23:00 UTC
Vent 7 kt del Sud, variant entre Sud/Sud-Est i Sud-Oest
Temperatura 9°C
Humitat 76%
Pressió 1015 hPa
Visibilitat 10 km o més
Escasses núvols a una alçada de 3700 ft
Cel ennuvolat a una alçada de 4400 ft
Cel cobert a una alçada de 5200 ft

METAR: LFGA 062300Z AUTO 18007KT 160V220 9999 FEW037 BKN044 OVC052 09/05 Q1015

Hora: 00:17 (23:17 UTC)


TAF: manca

Observacions i pronòstics meteorològics de més de 4000 aeroports (METAR i TAF).

Les estacions disponibles són els punts grocs i vermells al mapa.

Posi el ratolí al punt desitjat per veure el nom de l'estació.

Feu clic per veure les observacions i els pronòstics meteorològics.

Per canviar el mapa: feu clic els botons verds amb una creu de color negre per apropar; al botó verd amb un guió per allunyar la imatge; o en les fletxes verdes per a mapes adjacents.


METAR-TAF: